createdAt,value
2023-02-27T00:00:19.178Z,91.78
2023-02-27T00:03:05.637Z,92.05
2023-02-27T00:05:32.278Z,91.98
2023-02-27T00:07:58.757Z,92.04
2023-02-27T00:10:24.887Z,92.72
2023-02-27T00:12:51.566Z,92.89
2023-02-27T00:15:19.549Z,93.15
2023-02-27T00:17:46.092Z,93.63
2023-02-27T00:20:16.526Z,93.46
2023-02-27T00:22:43.997Z,93.63
2023-02-27T00:25:11.727Z,93.02
2023-02-27T00:27:38.699Z,93.43
2023-02-27T00:30:06.972Z,93.93
2023-02-27T00:32:35.839Z,93.04
2023-02-27T00:35:07.100Z,93.40
2023-02-27T00:37:33.915Z,93.13
2023-02-27T00:40:00.614Z,93.08
2023-02-27T00:42:27.864Z,93.89
2023-02-27T00:44:54.028Z,93.69
2023-02-27T00:47:20.426Z,93.99
2023-02-27T00:49:46.631Z,95.42
2023-02-27T00:52:13.027Z,94.96
2023-02-27T00:54:39.225Z,95.25
2023-02-27T00:57:06.296Z,95.52
2023-02-27T00:59:32.556Z,96.04
2023-02-27T01:01:59.023Z,96.16
2023-02-27T01:04:27.544Z,96.49
2023-02-27T01:06:54.235Z,97.52
2023-02-27T01:09:20.580Z,96.83
2023-02-27T01:11:47.067Z,97.46
2023-02-27T01:14:14.219Z,97.30
2023-02-27T01:16:40.831Z,96.77
2023-02-27T01:19:07.693Z,96.88
2023-02-27T01:21:34.234Z,97.23
2023-02-27T01:24:00.949Z,96.67
2023-02-27T01:26:27.395Z,97.36
2023-02-27T01:28:53.715Z,97.91
2023-02-27T01:31:20.302Z,97.61
2023-02-27T01:33:48.262Z,96.24
2023-02-27T01:36:14.725Z,96.25
2023-02-27T01:38:41.572Z,96.04
2023-02-27T01:41:08.223Z,96.66
2023-02-27T01:44:00.640Z,97.04
2023-02-27T01:46:29.164Z,98.22
2023-02-27T01:49:05.605Z,98.14
2023-02-27T01:51:36.505Z,98.62
2023-02-27T01:54:05.371Z,98.71
2023-02-27T01:56:32.086Z,98.56
2023-02-27T01:59:07.238Z,98.43
2023-02-27T02:01:34.813Z,99.18
2023-02-27T02:04:23.752Z,99.22
2023-02-27T02:06:57.885Z,99.18
2023-02-27T02:09:25.405Z,99.18
2023-02-27T02:11:53.743Z,99.65
2023-02-27T02:14:19.904Z,99.47
2023-02-27T02:17:11.690Z,99.22
2023-02-27T02:20:23.373Z,99.26
2023-02-27T02:23:04.897Z,99.14
2023-02-27T02:25:58.816Z,99.05
2023-02-27T02:29:02.422Z,98.67
2023-02-27T02:32:01.682Z,98.62
2023-02-27T02:34:56.226Z,98.26
2023-02-27T02:37:50.302Z,98.46
2023-02-27T02:40:26.646Z,99.21
2023-02-27T02:43:07.715Z,98.59
2023-02-27T02:45:53.984Z,98.96
2023-02-27T02:48:28.542Z,100.00
2023-02-27T02:51:07.441Z,99.57
2023-02-27T02:54:15.565Z,99.26
2023-02-27T02:57:16.092Z,98.21
2023-02-27T03:00:06.445Z,98.67
2023-02-27T03:02:39.166Z,98.45
2023-02-27T03:05:09.302Z,99.33
2023-02-27T03:07:44.651Z,99.27
2023-02-27T03:10:17.137Z,99.34
2023-02-27T03:12:50.737Z,99.42
2023-02-27T03:15:20.993Z,99.21
2023-02-27T03:18:20.053Z,99.23
2023-02-27T03:20:57.075Z,99.61
2023-02-27T03:23:34.100Z,99.63
2023-02-27T03:26:01.504Z,100.00
2023-02-27T03:28:33.401Z,99.90
2023-02-27T03:31:09.870Z,99.99
2023-02-27T03:33:39.882Z,99.80
2023-02-27T03:36:37.061Z,99.99
2023-02-27T03:39:13.381Z,100.00
2023-02-27T03:41:54.388Z,99.41
2023-02-27T03:44:57.324Z,99.38
2023-02-27T03:47:23.834Z,99.59
2023-02-27T03:49:50.762Z,100.00
2023-02-27T03:52:20.163Z,100.00
2023-02-27T03:54:54.026Z,100.00
2023-02-27T03:57:20.416Z,100.00
2023-02-27T03:59:46.877Z,100.00
2023-02-27T04:02:14.386Z,100.00
2023-02-27T04:04:40.884Z,100.00
2023-02-27T04:07:42.739Z,100.00
2023-02-27T04:10:09.535Z,100.00
2023-02-27T04:13:06.754Z,100.00
2023-02-27T04:15:52.724Z,100.00
2023-02-27T04:18:34.063Z,100.00
2023-02-27T04:21:10.035Z,100.00
2023-02-27T04:23:51.235Z,100.00
2023-02-27T04:26:31.404Z,100.00
2023-02-27T04:29:01.171Z,100.00
2023-02-27T04:31:38.774Z,100.00
2023-02-27T04:34:10.492Z,100.00
2023-02-27T04:37:06.695Z,100.00
2023-02-27T04:40:00.521Z,100.00
2023-02-27T04:42:31.370Z,100.00
2023-02-27T04:45:01.910Z,100.00
2023-02-27T04:47:34.046Z,100.00
2023-02-27T04:50:18.883Z,100.00
2023-02-27T04:52:52.120Z,100.00
2023-02-27T04:55:26.600Z,100.00
2023-02-27T04:57:59.655Z,100.00
2023-02-27T05:00:27.982Z,100.00
2023-02-27T05:03:00.476Z,100.00
2023-02-27T05:05:30.820Z,100.00
2023-02-27T05:08:12.451Z,100.00
2023-02-27T05:11:08.508Z,100.00
2023-02-27T05:13:50.141Z,100.00
2023-02-27T05:16:27.533Z,100.00
2023-02-27T05:18:54.902Z,100.00
2023-02-27T05:21:24.017Z,100.00
2023-02-27T05:24:26.623Z,100.00
2023-02-27T05:27:20.748Z,100.00
2023-02-27T05:30:03.574Z,100.00
2023-02-27T05:32:35.885Z,100.00
2023-02-27T05:35:12.762Z,100.00
2023-02-27T05:38:11.278Z,100.00
2023-02-27T05:40:46.781Z,100.00
2023-02-27T05:43:21.946Z,100.00
2023-02-27T05:45:51.857Z,100.00
2023-02-27T05:48:27.087Z,100.00
2023-02-27T05:50:55.433Z,100.00
2023-02-27T05:53:27.694Z,100.00
2023-02-27T05:55:58.155Z,100.00
2023-02-27T05:58:39.319Z,100.00
2023-02-27T06:01:08.724Z,100.00
2023-02-27T06:03:36.551Z,100.00
2023-02-27T06:06:07.050Z,100.00
2023-02-27T06:08:34.315Z,100.00
2023-02-27T06:11:01.565Z,100.00
2023-02-27T06:13:28.537Z,100.00
2023-02-27T06:15:55.751Z,100.00
2023-02-27T06:18:22.336Z,100.00
2023-02-27T06:20:49.583Z,100.00
2023-02-27T06:23:16.934Z,100.00
2023-02-27T06:25:43.697Z,100.00
2023-02-27T06:28:10.113Z,100.00
2023-02-27T06:30:37.410Z,100.00
2023-02-27T06:33:04.746Z,100.00
2023-02-27T06:35:31.841Z,100.00
2023-02-27T06:37:58.374Z,100.00
2023-02-27T06:40:24.981Z,100.00
2023-02-27T06:42:51.301Z,100.00
2023-02-27T06:45:17.909Z,100.00
2023-02-27T06:47:44.180Z,100.00
2023-02-27T06:50:12.844Z,100.00
2023-02-27T06:52:40.278Z,100.00
2023-02-27T06:55:08.470Z,100.00
2023-02-27T06:57:35.398Z,100.00
2023-02-27T07:00:05.132Z,100.00
2023-02-27T07:02:31.351Z,100.00
2023-02-27T07:04:58.118Z,100.00
2023-02-27T07:07:35.353Z,100.00
2023-02-27T07:10:11.360Z,100.00
2023-02-27T07:12:39.648Z,100.00
2023-02-27T07:15:08.113Z,100.00
2023-02-27T07:17:34.638Z,99.74
2023-02-27T07:20:01.438Z,100.00
2023-02-27T07:22:27.848Z,99.62
2023-02-27T07:24:54.549Z,99.23
2023-02-27T07:27:20.963Z,99.14
2023-02-27T07:29:52.220Z,99.15
2023-02-27T07:32:18.951Z,99.05
2023-02-27T07:34:45.582Z,98.59
2023-02-27T07:37:12.314Z,99.12
2023-02-27T07:39:39.883Z,98.34
2023-02-27T07:42:06.087Z,98.56
2023-02-27T07:44:33.613Z,98.56
2023-02-27T07:46:59.786Z,98.22
2023-02-27T07:49:26.227Z,98.28
2023-02-27T07:51:52.542Z,98.05
2023-02-27T07:54:19.205Z,97.34
2023-02-27T07:56:45.362Z,97.06
2023-02-27T07:59:11.975Z,96.85
2023-02-27T08:01:38.456Z,96.71
2023-02-27T08:04:05.173Z,96.32
2023-02-27T08:06:31.398Z,96.76
2023-02-27T08:08:58.179Z,96.13
2023-02-27T08:11:24.730Z,96.16
2023-02-27T08:14:06.680Z,95.97
2023-02-27T08:16:33.469Z,95.34
2023-02-27T08:19:00.659Z,95.11
2023-02-27T08:21:29.174Z,94.65
2023-02-27T08:23:56.178Z,95.24
2023-02-27T08:26:23.146Z,94.22
2023-02-27T08:28:50.448Z,93.72
2023-02-27T08:31:17.017Z,93.42
2023-02-27T08:33:43.609Z,94.46
2023-02-27T08:36:10.204Z,94.25
2023-02-27T08:38:36.898Z,94.02
2023-02-27T08:41:03.598Z,93.79
2023-02-27T08:43:30.195Z,93.81
2023-02-27T08:45:56.462Z,93.74
2023-02-27T08:48:24.178Z,93.12
2023-02-27T08:50:51.078Z,93.51
2023-02-27T08:53:18.049Z,93.78
2023-02-27T08:55:48.646Z,93.58
2023-02-27T08:58:17.051Z,93.26
2023-02-27T09:00:45.174Z,93.41
2023-02-27T09:03:12.469Z,93.25
2023-02-27T09:05:41.533Z,92.75
2023-02-27T09:08:08.968Z,92.81
2023-02-27T09:10:35.807Z,92.12
2023-02-27T09:13:02.280Z,91.58
2023-02-27T09:15:29.442Z,90.96
2023-02-27T09:17:59.451Z,90.84
2023-02-27T09:20:25.772Z,90.83
2023-02-27T09:22:52.253Z,89.79
2023-02-27T09:25:18.392Z,88.94
2023-02-27T09:27:45.046Z,89.02
2023-02-27T09:30:12.084Z,88.58
2023-02-27T09:32:38.680Z,87.99
2023-02-27T09:35:05.253Z,89.09
2023-02-27T09:37:31.876Z,87.86
2023-02-27T09:39:58.030Z,87.25
2023-02-27T09:42:32.190Z,87.14
2023-02-27T09:45:06.230Z,86.79
2023-02-27T09:47:42.178Z,86.87
2023-02-27T09:50:38.754Z,85.86
2023-02-27T09:53:11.895Z,86.74
2023-02-27T09:55:40.822Z,85.97
2023-02-27T09:58:10.266Z,86.50
2023-02-27T10:00:48.368Z,86.40
2023-02-27T10:03:42.616Z,86.49
2023-02-27T10:06:14.706Z,85.59
2023-02-27T10:08:50.052Z,84.83
2023-02-27T10:11:25.280Z,84.29
2023-02-27T10:14:08.935Z,84.14
2023-02-27T10:16:36.385Z,84.47
2023-02-27T10:19:10.469Z,83.70
2023-02-27T10:21:44.456Z,83.98
2023-02-27T10:24:32.355Z,84.60
2023-02-27T10:27:01.992Z,84.67
2023-02-27T10:29:35.838Z,83.96
2023-02-27T10:32:08.845Z,84.19
2023-02-27T10:34:39.404Z,84.47
2023-02-27T10:37:08.299Z,84.67
2023-02-27T10:39:55.876Z,85.27
2023-02-27T10:42:24.915Z,83.88
2023-02-27T10:44:53.060Z,84.66
2023-02-27T10:47:24.698Z,84.67
2023-02-27T10:49:53.677Z,84.02
2023-02-27T10:52:20.422Z,84.05
2023-02-27T10:54:48.253Z,82.37
2023-02-27T10:57:28.107Z,84.38
2023-02-27T11:00:17.577Z,83.17
2023-02-27T11:02:49.483Z,82.88
2023-02-27T11:05:28.757Z,83.76
2023-02-27T11:08:20.332Z,82.34
2023-02-27T11:11:08.885Z,83.52
2023-02-27T11:13:41.951Z,82.04
2023-02-27T11:16:11.024Z,80.99
2023-02-27T11:18:42.842Z,81.91
2023-02-27T11:21:18.924Z,82.44
2023-02-27T11:23:56.406Z,82.06
2023-02-27T11:26:32.585Z,82.00
2023-02-27T11:29:16.125Z,82.20
2023-02-27T11:32:14.473Z,82.88
2023-02-27T11:34:49.170Z,83.50
2023-02-27T11:37:27.667Z,83.24
2023-02-27T11:40:15.133Z,84.19
2023-02-27T11:43:01.219Z,82.70
2023-02-27T11:46:04.484Z,81.63
2023-02-27T11:48:20.505Z,80.81
2023-02-27T11:50:53.983Z,80.14
2023-02-27T11:53:56.398Z,81.47
2023-02-27T11:56:29.518Z,80.83
2023-02-27T11:58:59.311Z,78.88
2023-02-27T12:01:39.237Z,79.59
2023-02-27T12:04:12.985Z,79.88
2023-02-27T12:07:03.170Z,75.55
2023-02-27T12:09:45.314Z,73.51
2023-02-27T12:12:20.830Z,72.12
2023-02-27T12:15:04.468Z,69.96
2023-02-27T12:17:52.771Z,72.29
2023-02-27T12:20:22.337Z,73.58
2023-02-27T12:22:52.230Z,70.60
2023-02-27T12:25:31.154Z,69.59
2023-02-27T12:28:05.857Z,71.84
2023-02-27T12:30:44.183Z,73.18
2023-02-27T12:33:25.734Z,73.56
2023-02-27T12:35:59.238Z,74.45
2023-02-27T12:38:25.620Z,75.20
2023-02-27T12:41:30.360Z,75.73
2023-02-27T12:44:41.047Z,75.80
2023-02-27T12:47:32.352Z,76.40
2023-02-27T12:50:06.092Z,77.72
2023-02-27T12:53:00.385Z,77.54
2023-02-27T12:55:30.260Z,79.26
2023-02-27T12:58:21.575Z,80.08
2023-02-27T13:00:55.367Z,79.74
2023-02-27T13:03:33.937Z,80.38
2023-02-27T13:06:04.311Z,80.12
2023-02-27T13:09:04.864Z,80.87
2023-02-27T13:12:12.903Z,80.20
2023-02-27T13:14:54.461Z,79.75
2023-02-27T13:17:29.071Z,79.67
2023-02-27T13:20:20.500Z,79.05
2023-02-27T13:22:49.897Z,79.82
2023-02-27T13:25:17.988Z,79.60
2023-02-27T13:27:53.380Z,79.61
2023-02-27T13:30:26.731Z,79.94
2023-02-27T13:32:59.228Z,80.15
2023-02-27T13:35:52.432Z,79.67
2023-02-27T13:38:42.917Z,79.25
2023-02-27T13:41:24.779Z,79.82
2023-02-27T13:43:53.572Z,79.42
2023-02-27T13:46:20.123Z,79.02
2023-02-27T13:48:51.290Z,78.33
2023-02-27T13:51:36.774Z,78.54
2023-02-27T13:54:07.280Z,78.96
2023-02-27T13:56:35.036Z,78.51
2023-02-27T13:59:19.952Z,76.19
2023-02-27T14:01:59.012Z,75.02
2023-02-27T14:04:28.796Z,75.52
2023-02-27T14:07:01.551Z,75.36
2023-02-27T14:09:36.413Z,74.14
2023-02-27T14:12:05.969Z,74.81
2023-02-27T14:14:41.147Z,74.55
2023-02-27T14:17:11.308Z,74.88
2023-02-27T14:19:40.686Z,74.61
2023-02-27T14:22:10.897Z,75.10
2023-02-27T14:24:49.668Z,76.11
2023-02-27T14:27:42.176Z,76.04
2023-02-27T14:30:26.660Z,75.79
2023-02-27T14:33:13.560Z,75.86
2023-02-27T14:35:45.656Z,76.16
2023-02-27T14:38:18.706Z,76.09
2023-02-27T14:41:07.624Z,76.87
2023-02-27T14:43:39.208Z,76.55
2023-02-27T14:46:22.902Z,76.31
2023-02-27T14:48:58.403Z,76.96
2023-02-27T14:51:26.547Z,77.25
2023-02-27T14:54:13.548Z,77.77
2023-02-27T14:56:41.341Z,77.01
2023-02-27T14:59:42.623Z,78.34
2023-02-27T15:02:22.795Z,77.81
2023-02-27T15:05:13.005Z,78.11
2023-02-27T15:07:39.733Z,77.48
2023-02-27T15:10:10.234Z,78.80
2023-02-27T15:12:38.564Z,78.80
2023-02-27T15:15:07.123Z,79.17
2023-02-27T15:17:39.567Z,78.54
2023-02-27T15:20:28.578Z,78.18
2023-02-27T15:22:57.136Z,76.70
2023-02-27T15:25:37.767Z,77.43
2023-02-27T15:28:23.697Z,78.87
2023-02-27T15:30:52.104Z,78.03
2023-02-27T15:33:26.900Z,78.18
2023-02-27T15:35:53.861Z,77.88
2023-02-27T15:38:33.138Z,78.26
2023-02-27T15:41:01.757Z,78.93
2023-02-27T15:43:29.867Z,78.53
2023-02-27T15:45:57.621Z,78.93
2023-02-27T15:48:24.935Z,78.64
2023-02-27T15:50:56.154Z,78.60
2023-02-27T15:53:29.083Z,79.62
2023-02-27T15:55:59.965Z,78.61
2023-02-27T15:58:30.252Z,79.29
2023-02-27T16:01:01.145Z,80.23
2023-02-27T16:03:42.135Z,82.43
2023-02-27T16:06:16.380Z,82.19
2023-02-27T16:09:18.903Z,82.33
2023-02-27T16:11:45.998Z,81.88
2023-02-27T16:14:37.088Z,81.24
2023-02-27T16:17:21.090Z,80.88
2023-02-27T16:19:47.632Z,81.56
2023-02-27T16:22:19.805Z,82.10
2023-02-27T16:24:47.868Z,80.42
2023-02-27T16:27:23.070Z,81.90
2023-02-27T16:29:50.833Z,81.15
2023-02-27T16:32:27.323Z,81.49
2023-02-27T16:35:14.861Z,82.76
2023-02-27T16:37:46.108Z,82.26
2023-02-27T16:40:14.719Z,82.18
2023-02-27T16:42:43.169Z,82.29
2023-02-27T16:45:23.484Z,83.15
2023-02-27T16:47:53.175Z,82.24
2023-02-27T16:50:31.133Z,83.88
2023-02-27T16:52:57.942Z,84.31
2023-02-27T16:55:25.633Z,84.89
2023-02-27T16:57:52.650Z,85.63
2023-02-27T17:00:22.003Z,86.26
2023-02-27T17:02:53.230Z,86.45
2023-02-27T17:05:20.247Z,86.35
2023-02-27T17:07:48.139Z,86.98
2023-02-27T17:10:19.758Z,85.92
2023-02-27T17:12:47.269Z,85.49
2023-02-27T17:15:14.568Z,86.13
2023-02-27T17:18:09.522Z,85.82
2023-02-27T17:20:40.393Z,86.05
2023-02-27T17:23:09.964Z,86.62
2023-02-27T17:25:36.714Z,85.50
2023-02-27T17:28:03.755Z,86.44
2023-02-27T17:30:30.212Z,85.96
2023-02-27T17:32:59.689Z,86.88
2023-02-27T17:35:26.834Z,86.74
2023-02-27T17:37:54.007Z,86.87
2023-02-27T17:40:20.462Z,87.60
2023-02-27T17:42:47.497Z,88.38
2023-02-27T17:45:14.312Z,87.80
2023-02-27T17:47:42.368Z,88.72
2023-02-27T17:50:09.483Z,89.15
2023-02-27T17:52:37.115Z,90.31
2023-02-27T17:55:07.829Z,89.63
2023-02-27T17:57:36.441Z,89.87
2023-02-27T18:00:05.398Z,89.94
2023-02-27T18:02:32.329Z,89.94
2023-02-27T18:04:58.849Z,90.55
2023-02-27T18:07:25.516Z,90.71
2023-02-27T18:09:52.067Z,91.23
2023-02-27T18:12:18.956Z,92.08
2023-02-27T18:14:45.426Z,91.87
2023-02-27T18:17:12.496Z,91.87
2023-02-27T18:19:41.087Z,91.64
2023-02-27T18:22:09.236Z,91.21
2023-02-27T18:24:37.329Z,91.25
2023-02-27T18:27:04.394Z,92.34
2023-02-27T18:29:30.801Z,92.40
2023-02-27T18:31:57.810Z,92.69
2023-02-27T18:34:24.777Z,92.37
2023-02-27T18:36:51.538Z,93.04
2023-02-27T18:39:20.884Z,92.09
2023-02-27T18:41:47.775Z,92.40
2023-02-27T18:44:14.571Z,92.34
2023-02-27T18:46:41.631Z,93.77
2023-02-27T18:49:08.358Z,93.92
2023-02-27T18:51:35.776Z,93.72
2023-02-27T18:54:04.056Z,92.71
2023-02-27T18:56:32.278Z,92.10
2023-02-27T18:59:04.357Z,91.71
2023-02-27T19:01:35.034Z,92.21
2023-02-27T19:04:04.162Z,92.47
2023-02-27T19:06:42.552Z,93.17
2023-02-27T19:09:17.171Z,93.61
2023-02-27T19:11:45.416Z,93.84
2023-02-27T19:14:14.070Z,94.14
2023-02-27T19:16:42.019Z,94.09
2023-02-27T19:19:10.009Z,94.09
2023-02-27T19:21:36.978Z,94.20
2023-02-27T19:24:03.818Z,94.26
2023-02-27T19:26:56.096Z,94.93
2023-02-27T19:32:35.304Z,95.72
2023-02-27T19:35:05.984Z,95.46
2023-02-27T19:37:33.075Z,94.98
2023-02-27T19:49:36.518Z,93.45
2023-02-27T19:52:03.974Z,92.83
2023-02-27T19:54:30.962Z,93.38
2023-02-27T19:57:25.847Z,93.91
2023-02-27T20:00:00.882Z,93.49
2023-02-27T20:02:28.632Z,94.44
2023-02-27T20:04:55.747Z,93.84
2023-02-27T20:07:28.232Z,94.15
2023-02-27T20:09:56.182Z,94.31
2023-02-27T20:12:25.108Z,93.96
2023-02-27T20:14:52.124Z,93.74
2023-02-27T20:17:19.442Z,93.06
2023-02-27T20:19:47.145Z,93.47
2023-02-27T20:22:15.374Z,94.63
2023-02-27T20:24:44.372Z,94.38
2023-02-27T20:27:11.990Z,95.44
2023-02-27T20:29:40.003Z,96.62
2023-02-27T20:32:08.360Z,95.36
2023-02-27T20:34:35.534Z,96.43
2023-02-27T20:37:03.132Z,95.65
2023-02-27T20:39:30.302Z,95.80
2023-02-27T20:41:58.157Z,95.95
2023-02-27T20:44:25.668Z,95.73
2023-02-27T20:46:53.510Z,95.75
2023-02-27T20:49:22.273Z,96.39
2023-02-27T20:51:49.765Z,97.26
2023-02-27T20:54:19.609Z,97.66
2023-02-27T20:56:51.206Z,96.34
2023-02-27T20:59:22.898Z,94.28
2023-02-27T21:01:53.368Z,93.56
2023-02-27T21:04:23.711Z,94.58
2023-02-27T21:06:51.680Z,94.91
2023-02-27T21:09:18.677Z,93.46
2023-02-27T21:11:45.958Z,93.13
2023-02-27T21:14:13.972Z,92.75
2023-02-27T21:16:41.165Z,93.40
2023-02-27T21:19:08.195Z,93.19
2023-02-27T21:21:36.313Z,92.34
2023-02-27T21:24:03.745Z,92.69
2023-02-27T21:26:35.509Z,93.02
2023-02-27T21:29:06.946Z,91.98
2023-02-27T21:31:35.679Z,91.52
2023-02-27T21:34:06.314Z,90.77
2023-02-27T21:36:37.021Z,90.84
2023-02-27T21:39:06.476Z,91.20
2023-02-27T21:41:34.864Z,91.29
2023-02-27T21:44:04.784Z,91.55
2023-02-27T21:46:33.186Z,91.66
2023-02-27T21:49:00.953Z,91.12
2023-02-27T21:51:39.304Z,91.17
2023-02-27T21:54:08.951Z,90.23
2023-02-27T21:56:36.630Z,90.60
2023-02-27T21:59:06.668Z,90.64
2023-02-27T22:01:35.255Z,90.94
2023-02-27T22:04:02.606Z,90.91
2023-02-27T22:06:32.301Z,90.92
2023-02-27T22:09:04.010Z,90.39
2023-02-27T22:11:33.712Z,90.42
2023-02-27T22:14:01.092Z,89.73
2023-02-27T22:16:28.154Z,89.81
2023-02-27T22:18:54.598Z,90.56
2023-02-27T22:21:24.424Z,90.80
2023-02-27T22:23:51.128Z,90.25
2023-02-27T22:26:21.055Z,90.60
2023-02-27T22:28:47.185Z,90.58
2023-02-27T22:31:17.706Z,90.63
2023-02-27T22:33:47.183Z,90.80
2023-02-27T22:36:20.266Z,90.63
2023-02-27T22:38:47.489Z,90.49
2023-02-27T22:41:39.633Z,90.85
2023-02-27T22:44:08.789Z,90.78
2023-02-27T22:46:38.359Z,90.61
2023-02-27T22:49:12.685Z,90.78
2023-02-27T22:51:39.317Z,90.18
2023-02-27T22:54:07.218Z,90.13
2023-02-27T22:56:36.387Z,90.83
2023-02-27T22:59:04.444Z,90.75
2023-02-27T23:01:34.130Z,91.14
2023-02-27T23:04:07.076Z,90.90
2023-02-27T23:06:36.800Z,90.59
2023-02-27T23:09:05.072Z,90.93
2023-02-27T23:11:32.143Z,90.51
2023-02-27T23:13:59.265Z,90.72
2023-02-27T23:16:25.803Z,90.66
2023-02-27T23:18:54.993Z,90.57
2023-02-27T23:21:41.136Z,90.44
2023-02-27T23:24:10.061Z,90.90
2023-02-27T23:26:42.481Z,91.05
2023-02-27T23:29:09.493Z,90.69
2023-02-27T23:31:36.974Z,90.93
2023-02-27T23:34:07.264Z,90.98
2023-02-27T23:36:35.164Z,91.43
2023-02-27T23:39:02.716Z,91.07
2023-02-27T23:41:29.897Z,91.17
2023-02-27T23:44:14.755Z,90.61
2023-02-27T23:46:41.238Z,91.35
2023-02-27T23:49:08.105Z,91.28
2023-02-27T23:51:35.066Z,91.23
2023-02-27T23:54:01.449Z,91.60
2023-02-27T23:56:29.691Z,91.99
2023-02-27T23:59:01.719Z,91.74
